Draughon Miller Central Texas Regional Airport
KTPL : now visible

Aeroporto :











RITROVATECI SU...

 
LOGIN :

Iscrizione | Disclaimer

   EN    FR    IT 

 









Sommario :    VFR   VFR Marginale   IFR   IFR Intensivo   IFR Molto Intensivo
Visibilità : 
Base nubi : 
>= 8 km
>= 3000ft
5 / 8 km
1000 / 3000 ft
1500m / 5 km
500 / 1000 ft
800 / 1500m
200 / 500 ft
< 800m
< 200 ft
Simboli :   Temporali  Nebbia  Neve Forte  Precipitazioni Forti  Vento > 20 kt






- Altitudine del aeroporto : 682 ft
- Codice IATA : TPL


KTPL - Draughon Miller Central Texas Regional

ULTIMO METAR :
  • 201051Z AUTO 35011KT 10SM -RA OVC006 06/06 A3024 RMK AO2 SLP238 P0004 T00560056

METARs OBSOLETI :
  • 201027Z AUTO 36012KT 8SM -RA OVC006 06/06 A3022 RMK AO2 CIG 004V012 P0003
  • 200951Z AUTO 33010KT 10SM -RA BKN004 OVC055 06/06 A3023 RMK AO2 SLP236 P0013 T00610061
  • 200851Z AUTO 35007KT 10SM -RA SCT004 OVC008 06/06 A3022 RMK AO2 CIG 006V013 SLP232 P0010 60041 T00610061 58003
  • 200833Z AUTO 02008KT 10SM -RA BKN006 OVC050 06/06 A3021 RMK AO2 CIG 004V008 P0007
  • 200803Z AUTO 36005KT 6SM -RA BR BKN004 BKN013 OVC034 06/06 A3023 RMK AO2 CIG 003V009 P0002

TAF N/A



MetMap, La meteo Aeronautica in un colpo d'occhio ! - Copyright ORBIFLY Dicembre 2007 - Disclaimer

ORBIFLY MET'MAP TEAM :

Programmazione e sviluppo : Alexandra Zaïnal
Concezione : Baudouin d'Aumeries
Aiuto per la programmazione : Marc-Olivier Méhu
Supporto tecnico e logistico : Manuel Goepfert
Aiuto per la traduzione : Arnaldo La Scala

Contatto : metmap@orbifly.com




FONTI E CREDITI :

   NOAA       Earth
Advisory